Time;durP1;ratioP1;P1;durP2;ratioP2;P2;SDS_P1;SDS_P2;PMS_P1;PMS_P2;Temp;Humidity;BMP_temperature;BMP_pressure;BME280_temperature;BME280_humidity;BME280_pressure;Samples;Min_cycle;Max_cycle;Signal;HPM_P1;HPM_P2
2022/08/01 00:01:59;;;;;;;8.30;7.50;;;;;;;25.11;63.93;97364.66;5059301;28;20259;-31
2022/08/01 00:04:26;;;;;;;8.23;7.43;;;;;;;25.08;64.22;97366.34;5053334;28;20201;-31
2022/08/01 00:06:52;;;;;;;7.97;7.17;;;;;;;25.10;63.97;97369.78;5057431;28;20287;-31
2022/08/01 00:09:19;;;;;;;7.83;6.80;;;;;;;25.08;63.78;97368.94;5051560;28;20247;-31
2022/08/01 00:11:49;;;;;;;7.90;7.07;;;;;;;25.11;64.13;97366.41;5058462;28;20200;-31
2022/08/01 00:14:25;;;;;;;8.70;7.03;;;;;;;25.08;64.24;97362.06;5051600;28;20224;-31
2022/08/01 00:16:58;;;;;;;8.33;7.00;;;;;;;25.11;64.03;97366.41;5050825;28;20211;-31
2022/08/01 00:19:32;;;;;;;7.67;6.90;;;;;;;25.11;64.20;97362.09;5058427;28;20576;-31
2022/08/01 00:21:58;;;;;;;8.23;7.00;;;;;;;25.11;64.08;97367.25;5054358;28;20292;-31
2022/08/01 00:24:25;;;;;;;8.53;6.87;;;;;;;25.12;63.80;97370.69;5052509;28;20278;-31
2022/08/01 00:26:52;;;;;;;7.63;6.57;;;;;;;25.10;64.07;97370.66;5035973;28;20302;-31
2022/08/01 00:29:18;;;;;;;7.47;6.77;;;;;;;25.11;64.24;97368.97;5052464;28;20307;-31
2022/08/01 00:32:05;;;;;;;7.67;6.30;;;;;;;25.12;64.01;97368.13;5053675;28;20197;-31
2022/08/01 00:34:32;;;;;;;7.20;6.50;;;;;;;25.11;64.24;97369.81;5051321;28;20270;-31
2022/08/01 00:36:59;;;;;;;9.63;6.70;;;;;;;25.12;64.19;97365.53;5054087;28;20256;-31
2022/08/01 00:39:25;;;;;;;7.90;7.00;;;;;;;25.11;64.30;97366.41;5055898;28;20223;-31
2022/08/01 00:41:52;;;;;;;8.93;7.27;;;;;;;25.11;64.13;97366.41;5050187;28;20205;-31
2022/08/01 00:44:25;;;;;;;7.60;6.83;;;;;;;25.11;64.18;97363.81;5052028;28;20232;-31
2022/08/01 00:46:52;;;;;;;7.07;6.47;;;;;;;25.11;63.85;97362.09;5052544;28;20201;-31
2022/08/01 00:49:18;;;;;;;7.10;6.40;;;;;;;25.08;64.11;97354.34;5053460;28;20282;-31
2022/08/01 00:51:45;;;;;;;7.13;6.10;;;;;;;25.10;64.27;97362.94;5053580;28;20247;-31
2022/08/01 00:54:12;;;;;;;7.10;6.40;;;;;;;25.08;63.96;97356.91;5052858;28;20240;-31
2022/08/01 00:56:42;;;;;;;7.43;6.73;;;;;;;25.08;64.01;97356.91;5025105;28;20270;-31
2022/08/01 00:59:08;;;;;;;6.87;6.23;;;;;;;25.11;64.13;97366.41;5018861;28;20224;-31
2022/08/01 01:01:36;;;;;;;7.20;6.50;;;;;;;25.12;64.01;97360.41;5038538;28;20294;-31
2022/08/01 01:04:05;;;;;;;6.40;5.80;;;;;;;25.11;64.33;97361.25;5049114;28;20762;-31
2022/08/01 01:06:55;;;;;;;7.10;6.40;;;;;;;25.11;64.38;97363.81;5052754;28;20204;-31
2022/08/01 01:09:51;;;;;;;7.77;6.33;;;;;;;25.11;64.11;97366.41;5043823;28;20315;-31
2022/08/01 01:12:28;;;;;;;7.97;6.73;;;;;;;25.11;63.98;97358.69;5010040;28;20302;-31
2022/08/01 01:15:08;;;;;;;8.90;6.30;;;;;;;25.11;63.87;97362.09;5056766;28;20244;-31
2022/08/01 01:18:07;;;;;;;8.03;6.33;;;;;;;25.10;63.83;97365.53;5021525;28;20228;-31
2022/08/01 01:20:37;;;;;;;9.10;6.63;;;;;;;25.10;64.04;97367.22;5036028;28;20226;-31
2022/08/01 01:23:20;;;;;;;7.57;6.50;;;;;;;25.10;64.21;97375.81;5050195;28;20229;-31
2022/08/01 01:26:28;;;;;;;6.60;5.93;;;;;;;25.10;64.04;97373.25;5031393;28;20725;-31
2022/08/01 01:29:10;;;;;;;7.33;6.40;;;;;;;25.10;63.99;97370.66;5039575;28;20224;-31
2022/08/01 01:31:43;;;;;;;7.10;6.40;;;;;;;25.03;64.55;97365.41;5049421;28;20285;-31
2022/08/01 01:34:11;;;;;;;7.43;6.37;;;;;;;25.09;64.31;97379.22;5015241;28;20259;-31
2022/08/01 01:36:38;;;;;;;7.43;6.60;;;;;;;25.03;64.03;97371.44;5052482;28;20232;-31
2022/08/01 01:39:06;;;;;;;7.40;6.13;;;;;;;25.10;64.19;97373.25;5036647;28;20287;-31
2022/08/01 01:41:33;;;;;;;7.07;6.37;;;;;;;25.09;64.00;97379.22;5051962;28;20263;-31
2022/08/01 01:44:00;;;;;;;7.47;6.33;;;;;;;25.10;64.42;97382.66;5019733;28;20286;-31
2022/08/01 01:46:26;;;;;;;8.53;6.00;;;;;;;25.09;64.45;97376.66;5020400;28;20284;-31
2022/08/01 01:48:54;;;;;;;6.87;6.17;;;;;;;25.10;64.07;97377.50;5031118;28;20244;-31
2022/08/01 01:51:21;;;;;;;6.70;6.10;;;;;;;24.98;64.41;97362.78;5031699;28;20268;-31
2022/08/01 01:53:49;;;;;;;7.03;6.13;;;;;;;25.09;64.00;97379.22;5020579;28;20274;-31
2022/08/01 01:56:16;;;;;;;6.63;6.00;;;;;;;25.09;63.91;97383.50;5025645;28;20238;-31
2022/08/01 01:58:42;;;;;;;6.13;5.60;;;;;;;25.06;63.98;97374.06;5016542;28;20301;-31
2022/08/01 02:01:11;;;;;;;6.43;5.83;;;;;;;25.01;64.24;97367.09;5022877;28;20243;-31
2022/08/01 02:03:41;;;;;;;7.13;6.13;;;;;;;25.07;64.54;97374.91;5034590;28;20648;-31
2022/08/01 02:06:08;;;;;;;7.33;6.27;;;;;;;25.08;64.25;97392.91;5027567;28;20243;-31
2022/08/01 02:08:34;;;;;;;6.40;5.80;;;;;;;25.06;64.50;97375.75;5015959;28;20715;-31
2022/08/01 02:11:19;;;;;;;6.80;6.10;;;;;;;25.01;64.30;97367.09;5017851;28;20682;-31
2022/08/01 02:13:58;;;;;;;8.87;6.33;;;;;;;25.07;64.15;97383.47;5021553;28;20595;-31
2022/08/01 02:16:26;;;;;;;6.47;5.60;;;;;;;25.08;64.52;97380.06;5027656;28;20232;-31
2022/08/01 02:18:53;;;;;;;5.80;5.30;;;;;;;25.10;64.24;97377.50;5017837;28;20324;-31
2022/08/01 02:21:23;;;;;;;6.50;5.90;;;;;;;25.01;64.38;97367.97;5034111;28;20256;-31
2022/08/01 02:23:50;;;;;;;6.37;5.77;;;;;;;25.09;64.32;97384.38;5016675;28;20240;-31
2022/08/01 02:26:17;;;;;;;6.20;5.60;;;;;;;25.06;64.60;97383.47;5014387;28;20240;-31
2022/08/01 02:28:56;;;;;;;6.07;5.50;;;;;;;25.09;64.34;97386.94;5052303;28;20947;-31
2022/08/01 02:31:23;;;;;;;5.80;5.30;;;;;;;25.09;64.67;97401.50;5032759;28;20247;-31
2022/08/01 02:33:58;;;;;;;6.53;5.90;;;;;;;25.07;64.21;97383.47;5056144;28;20308;-31
2022/08/01 02:36:26;;;;;;;6.23;5.37;;;;;;;25.09;64.54;97397.25;5021661;28;20244;-31
2022/08/01 02:38:58;;;;;;;6.33;5.73;;;;;;;25.10;64.39;97390.38;5033280;28;20201;-31
2022/08/01 02:41:25;;;;;;;5.63;5.07;;;;;;;25.09;64.00;97389.53;5010801;28;20733;-31
2022/08/01 02:43:53;;;;;;;6.13;5.53;;;;;;;25.09;64.08;97397.25;5052577;28;20284;-31
2022/08/01 02:46:51;;;;;;;8.90;5.70;;;;;;;25.10;64.08;97392.94;5057318;28;20227;-31
2022/08/01 02:49:19;;;;;;;6.23;5.63;;;;;;;25.09;64.34;97397.25;5031804;28;20354;-31
2022/08/01 02:51:45;;;;;;;5.93;5.30;;;;;;;24.98;64.48;97373.06;5031728;28;20193;-30
2022/08/01 02:54:12;;;;;;;5.73;5.23;;;;;;;25.09;64.35;97394.66;5020652;28;20730;-31
2022/08/01 02:56:40;;;;;;;5.53;5.03;;;;;;;25.10;64.22;97395.50;5017894;28;20240;-30
2022/08/01 02:59:09;;;;;;;5.93;5.07;;;;;;;25.04;64.27;97391.16;5025681;28;20201;-31
2022/08/01 03:01:35;;;;;;;5.70;5.20;;;;;;;25.04;64.53;97387.72;5032296;28;20255;-30
2022/08/01 03:04:05;;;;;;;5.63;5.13;;;;;;;25.09;64.67;97404.94;5024169;28;20204;-30
2022/08/01 03:06:33;;;;;;;5.80;5.30;;;;;;;25.10;64.35;97409.25;5020344;28;20305;-30
2022/08/01 03:09:03;;;;;;;5.77;5.27;;;;;;;25.04;64.14;97392.84;5032628;28;20256;-30
2022/08/01 03:11:30;;;;;;;5.60;5.10;;;;;;;25.04;64.27;97391.16;5022495;28;20232;-31
2022/08/01 03:13:58;;;;;;;5.20;4.70;;;;;;;25.01;64.36;97391.13;5039212;28;20311;-31
2022/08/01 03:16:26;;;;;;;5.60;5.10;;;;;;;25.10;64.55;97405.78;5039628;28;20240;-31
2022/08/01 03:18:53;;;;;;;6.73;5.30;;;;;;;25.10;64.49;97409.25;5021497;28;20205;-30
2022/08/01 03:21:20;;;;;;;5.67;5.17;;;;;;;25.09;64.48;97406.66;5037979;28;20259;-30
2022/08/01 03:23:47;;;;;;;7.10;6.00;;;;;;;25.09;64.15;97406.66;5035641;28;20687;-31
2022/08/01 03:26:18;;;;;;;5.47;4.97;;;;;;;25.09;64.47;97409.22;5043180;28;20228;-30
2022/08/01 03:28:46;;;;;;;6.00;5.17;;;;;;;25.07;64.78;97409.19;5036612;28;20197;-30
2022/08/01 03:31:12;;;;;;;5.47;4.97;;;;;;;25.02;64.10;97405.69;5045851;28;20231;-30
2022/08/01 03:33:39;;;;;;;5.60;5.10;;;;;;;25.07;64.79;97414.34;5015151;28;20292;-31
2022/08/01 03:36:06;;;;;;;5.33;4.83;;;;;;;25.07;64.53;97416.03;5019732;28;20225;-30
2022/08/01 03:38:33;;;;;;;5.17;4.77;;;;;;;24.97;64.48;97399.66;5031532;28;20243;-31
2022/08/01 03:41:02;;;;;;;5.47;4.97;;;;;;;25.04;64.40;97414.31;5031557;28;20311;-31
2022/08/01 03:44:02;;;;;;;5.47;4.97;;;;;;;25.08;64.54;97426.34;5014011;28;20205;-30
2022/08/01 03:46:39;;;;;;;5.03;4.60;;;;;;;25.09;64.74;97424.66;4992131;28;20296;-30
2022/08/01 03:49:07;;;;;;;5.60;5.10;;;;;;;25.09;64.26;97432.38;5029100;28;20655;-30
2022/08/01 03:51:34;;;;;;;5.67;5.17;;;;;;;25.09;64.77;97429.78;5033321;28;20758;-30
2022/08/01 03:54:01;;;;;;;6.03;5.43;;;;;;;25.08;64.56;97426.34;5019353;28;20746;-30
2022/08/01 03:56:27;;;;;;;5.73;5.13;;;;;;;25.08;64.48;97423.78;5015070;28;20236;-30
2022/08/01 03:58:54;;;;;;;5.00;4.50;;;;;;;25.09;64.26;97427.22;5054985;28;20206;-31
2022/08/01 04:01:20;;;;;;;5.20;4.70;;;;;;;25.08;64.49;97426.34;5013717;28;20256;-31
2022/08/01 04:03:47;;;;;;;5.67;5.13;;;;;;;25.07;64.60;97419.50;5028778;28;20208;-30
2022/08/01 04:06:13;;;;;;;5.40;4.90;;;;;;;25.08;64.46;97431.50;5048308;28;20317;-31
2022/08/01 04:08:41;;;;;;;5.73;4.67;;;;;;;25.09;64.13;97427.22;5048448;28;20207;-30
2022/08/01 04:11:07;;;;;;;4.47;3.73;;;;;;;25.08;63.29;97423.78;5049573;28;20274;-30
2022/08/01 04:13:34;;;;;;;4.63;3.90;;;;;;;25.08;62.42;97426.34;5048231;28;20299;-31
2022/08/01 04:16:04;;;;;;;4.13;3.73;;;;;;;25.07;61.71;97431.47;5047364;28;20227;-30
2022/08/01 04:18:30;;;;;;;3.87;3.57;;;;;;;25.07;60.91;97437.50;5044023;28;20317;-30
2022/08/01 04:20:57;;;;;;;3.67;3.37;;;;;;;25.06;60.77;97446.06;5042250;28;20249;-30
2022/08/01 04:23:24;;;;;;;4.13;3.00;;;;;;;25.06;60.41;97443.50;5040027;28;20330;-30
2022/08/01 04:25:51;;;;;;;3.77;3.33;;;;;;;25.05;60.27;97444.31;5022814;28;20308;-31
2022/08/01 04:28:19;;;;;;;6.93;3.70;;;;;;;25.06;60.09;97448.63;5019831;28;20702;-30
2022/08/01 04:30:46;;;;;;;4.77;3.63;;;;;;;24.99;59.60;97440.81;5027716;28;20328;-30
2022/08/01 04:33:15;;;;;;;4.00;3.60;;;;;;;25.04;59.99;97452.00;5016228;28;20242;-31
2022/08/01 04:35:44;;;;;;;5.17;3.30;;;;;;;25.02;60.57;97454.56;5030624;28;20633;-30
2022/08/01 04:38:31;;;;;;;8.07;3.37;;;;;;;25.01;60.12;97455.41;5030996;28;20235;-30
2022/08/01 04:40:57;;;;;;;4.20;3.50;;;;;;;25.04;60.32;97459.72;5007058;28;20349;-31
2022/08/01 04:43:24;;;;;;;3.90;3.50;;;;;;;25.02;60.67;97458.84;5043683;28;20270;-31
2022/08/01 04:45:51;;;;;;;5.97;3.70;;;;;;;24.99;60.21;97457.06;5010458;28;20291;-30
2022/08/01 04:48:19;;;;;;;4.17;3.37;;;;;;;25.04;60.08;97464.84;5010063;28;20392;-30
2022/08/01 04:50:48;;;;;;;5.00;3.37;;;;;;;25.03;59.69;97473.44;5026686;28;20285;-30
2022/08/01 04:53:16;;;;;;;3.50;3.17;;;;;;;25.02;59.77;97475.13;5044713;28;20262;-30
2022/08/01 04:55:46;;;;;;;5.37;3.60;;;;;;;25.03;59.67;97486.28;5043955;28;20600;-30
2022/08/01 04:58:14;;;;;;;4.87;3.63;;;;;;;25.02;59.89;97485.41;5044011;28;20644;-31
2022/08/01 05:00:44;;;;;;;3.93;3.37;;;;;;;25.04;59.67;97490.56;5043193;28;20706;-30
2022/08/01 05:03:11;;;;;;;4.37;3.53;;;;;;;25.04;60.24;97495.72;5045240;28;20331;-30
2022/08/01 05:05:37;;;;;;;4.73;3.23;;;;;;;25.05;60.40;97497.47;5043673;28;20683;-30
2022/08/01 05:08:05;;;;;;;4.13;3.33;;;;;;;25.04;60.26;97500.84;5045994;28;20240;-31
2022/08/01 05:10:32;;;;;;;5.07;3.60;;;;;;;25.06;60.18;97499.19;5042998;28;20228;-31
2022/08/01 05:12:59;;;;;;;7.10;3.43;;;;;;;25.05;60.48;97503.44;5046604;28;20319;-30
2022/08/01 05:15:26;;;;;;;5.13;3.53;;;;;;;25.03;60.66;97492.31;5043422;28;20231;-31
2022/08/01 05:17:53;;;;;;;3.50;3.20;;;;;;;25.06;60.80;97491.47;5043023;28;20641;-30
2022/08/01 05:20:20;;;;;;;4.33;3.27;;;;;;;25.07;60.38;97500.91;5024259;28;20229;-32
2022/08/01 05:22:47;;;;;;;5.13;3.60;;;;;;;25.07;60.71;97508.63;5042945;28;21008;-30
2022/08/01 05:25:13;;;;;;;4.03;3.43;;;;;;;25.01;60.53;97496.53;5043293;28;20735;-30
2022/08/01 05:27:46;;;;;;;3.33;3.13;;;;;;;25.07;60.70;97508.63;5047249;28;20622;-30
2022/08/01 05:30:16;;;;;;;4.53;3.40;;;;;;;25.07;60.66;97508.63;5025179;28;20902;-31
2022/08/01 05:32:42;;;;;;;3.40;3.10;;;;;;;25.08;60.77;97512.94;5041988;28;20204;-31
2022/08/01 05:35:09;;;;;;;3.40;3.10;;;;;;;25.08;61.28;97518.09;5041909;28;20264;-30
2022/08/01 05:37:36;;;;;;;4.17;3.33;;;;;;;25.09;61.03;97517.22;5043389;28;20205;-30
2022/08/01 05:40:03;;;;;;;3.63;3.33;;;;;;;25.09;61.23;97524.94;5037814;28;20489;-31
2022/08/01 05:42:30;;;;;;;3.37;3.07;;;;;;;25.09;60.87;97515.53;5045655;28;20255;-30
2022/08/01 05:44:56;;;;;;;4.07;3.37;;;;;;;25.09;61.44;97517.22;5047124;28;20193;-30
2022/08/01 05:47:23;;;;;;;5.27;3.20;;;;;;;25.07;61.08;97514.63;5047820;28;20238;-31
2022/08/01 05:49:49;;;;;;;3.70;3.23;;;;;;;25.06;61.62;97507.78;5027673;28;20599;-30
2022/08/01 05:52:16;;;;;;;4.00;3.10;;;;;;;25.10;61.34;97522.41;5035771;28;20576;-31
2022/08/01 05:54:42;;;;;;;3.57;3.27;;;;;;;25.11;60.99;97518.13;5050934;28;20236;-31
2022/08/01 05:57:09;;;;;;;4.27;3.50;;;;;;;25.10;61.41;97519.81;5046186;28;20201;-31
2022/08/01 05:59:37;;;;;;;3.30;3.00;;;;;;;25.10;61.37;97522.41;5046516;28;20228;-31
2022/08/01 06:02:04;;;;;;;3.30;3.10;;;;;;;25.09;61.14;97514.66;5046344;28;20237;-30
2022/08/01 06:04:31;;;;;;;3.83;3.20;;;;;;;25.12;61.05;97519.84;5043144;28;20213;-31
2022/08/01 06:06:58;;;;;;;3.40;3.10;;;;;;;25.13;61.65;97523.31;5046594;28;20295;-30
2022/08/01 06:09:24;;;;;;;3.53;3.07;;;;;;;24.48;61.67;97415.13;5037021;28;20324;-30
2022/08/01 06:11:51;;;;;;;3.37;3.07;;;;;;;25.13;61.38;97526.72;5046433;28;20228;-30
2022/08/01 06:14:17;;;;;;;4.00;3.07;;;;;;;25.13;61.10;97532.72;5047111;28;20307;-31
2022/08/01 06:16:44;;;;;;;3.47;3.17;;;;;;;25.13;61.66;97531.84;5041947;28;20225;-30
2022/08/01 06:19:11;;;;;;;3.20;2.90;;;;;;;25.14;61.63;97536.19;5046382;28;20197;-30
2022/08/01 06:21:37;;;;;;;3.13;2.90;;;;;;;25.15;61.78;97535.31;5039207;28;20292;-31
2022/08/01 06:24:04;;;;;;;3.43;3.13;;;;;;;25.13;61.67;97533.59;5045596;28;20744;-31
2022/08/01 06:26:31;;;;;;;3.20;2.90;;;;;;;25.16;61.56;97538.78;5044049;28;20680;-30
2022/08/01 06:28:57;;;;;;;3.03;2.80;;;;;;;25.14;61.33;97542.16;5044516;28;20208;-30
2022/08/01 06:31:24;;;;;;;3.27;2.97;;;;;;;25.17;61.32;97549.09;5042550;28;20236;-30
2022/08/01 06:33:56;;;;;;;3.30;3.00;;;;;;;25.17;61.60;97550.78;5047990;28;20201;-30
2022/08/01 06:36:23;;;;;;;6.07;3.40;;;;;;;25.16;61.64;97552.47;5048729;28;20220;-31
2022/08/01 06:38:50;;;;;;;3.23;2.93;;;;;;;25.17;61.60;97545.63;5050396;28;20734;-30
2022/08/01 06:41:16;;;;;;;3.93;3.30;;;;;;;25.17;61.73;97544.78;5049874;28;20291;-30
2022/08/01 06:43:43;;;;;;;4.07;3.20;;;;;;;25.17;61.25;97544.78;5050554;28;20346;-31
2022/08/01 06:46:09;;;;;;;3.30;3.00;;;;;;;25.17;61.33;97547.34;5053207;28;20223;-31
2022/08/01 06:48:39;;;;;;;3.20;2.90;;;;;;;25.17;61.38;97538.81;5031411;28;20702;-30
2022/08/01 06:51:08;;;;;;;4.60;3.27;;;;;;;25.19;61.62;97549.13;5045478;28;20235;-30
2022/08/01 06:53:36;;;;;;;3.80;3.10;;;;;;;25.18;61.92;97548.25;5049714;28;20234;-31
2022/08/01 06:56:03;;;;;;;3.10;2.90;;;;;;;25.17;61.95;97549.94;5044844;28;20505;-30
2022/08/01 06:58:29;;;;;;;3.70;3.40;;;;;;;25.19;61.53;97554.25;5046827;28;20288;-31
2022/08/01 07:00:57;;;;;;;3.80;3.50;;;;;;;25.17;61.65;97548.22;5049370;28;20224;-31
2022/08/01 07:03:25;;;;;;;3.87;3.40;;;;;;;25.15;61.97;97545.63;5048455;28;20208;-31
2022/08/01 07:06:11;;;;;;;5.07;3.57;;;;;;;25.17;62.01;97551.66;5046124;28;20196;-31
2022/08/01 07:08:40;;;;;;;4.87;3.20;;;;;;;25.17;61.93;97546.50;5048769;28;20205;-30
2022/08/01 07:11:07;;;;;;;3.97;3.40;;;;;;;25.17;61.84;97550.78;5048668;28;20286;-31
2022/08/01 07:13:33;;;;;;;4.03;3.63;;;;;;;25.17;61.80;97554.22;5049668;28;20690;-31
2022/08/01 07:16:14;;;;;;;4.27;3.40;;;;;;;25.16;61.80;97547.34;5042252;28;20231;-31
2022/08/01 07:18:40;;;;;;;4.30;3.37;;;;;;;25.17;61.88;97551.66;5049228;28;20247;-31
2022/08/01 07:21:07;;;;;;;3.97;3.27;;;;;;;25.17;61.58;97554.22;5027762;28;20255;-30
2022/08/01 07:23:54;;;;;;;3.67;3.20;;;;;;;25.17;61.54;97553.34;5049594;28;20679;-31
2022/08/01 07:26:21;;;;;;;3.57;3.23;;;;;;;25.17;61.67;97551.66;5049756;28;20201;-30
2022/08/01 07:28:48;;;;;;;4.03;3.47;;;;;;;25.17;62.12;97546.50;5046615;28;20300;-31
2022/08/01 07:31:15;;;;;;;3.30;3.03;;;;;;;25.11;61.92;97542.13;5049629;28;20332;-31
2022/08/01 07:33:41;;;;;;;3.53;3.23;;;;;;;25.16;62.11;97547.34;5037862;28;20296;-31
2022/08/01 07:36:14;;;;;;;3.57;3.27;;;;;;;25.13;62.15;97550.75;5047578;28;20216;-30
2022/08/01 07:38:41;;;;;;;4.00;3.30;;;;;;;25.16;61.75;97552.47;5044856;28;20266;-31
2022/08/01 07:41:08;;;;;;;3.53;3.27;;;;;;;25.15;62.01;97548.19;5052980;28;20319;-31
2022/08/01 07:43:35;;;;;;;4.23;3.10;;;;;;;25.16;61.99;97543.91;5051570;28;20254;-30
2022/08/01 07:46:03;;;;;;;3.53;3.00;;;;;;;25.15;61.97;97545.63;5049335;28;20193;-31
2022/08/01 07:48:29;;;;;;;3.10;2.90;;;;;;;25.16;61.80;97541.34;5046326;28;20244;-30
2022/08/01 07:50:56;;;;;;;3.60;3.30;;;;;;;25.16;62.09;97536.19;5041805;28;20829;-30
2022/08/01 07:53:23;;;;;;;3.50;3.20;;;;;;;25.14;62.27;97537.03;5046760;28;20313;-30
2022/08/01 07:55:49;;;;;;;3.67;3.23;;;;;;;25.14;61.79;97533.63;5047300;28;20312;-31
2022/08/01 07:58:16;;;;;;;3.70;3.20;;;;;;;25.17;62.13;97542.22;5047438;28;20240;-31
2022/08/01 08:00:42;;;;;;;3.10;2.87;;;;;;;25.17;62.11;97542.22;5047335;28;20223;-30
2022/08/01 08:03:09;;;;;;;3.63;3.33;;;;;;;25.18;62.18;97535.38;5040833;28;20319;-31
2022/08/01 08:05:35;;;;;;;3.30;3.00;;;;;;;25.17;61.88;97539.66;5046506;28;20228;-30
2022/08/01 08:08:22;;;;;;;3.10;2.90;;;;;;;25.18;62.34;97532.81;5047615;28;20201;-31
2022/08/01 08:10:49;;;;;;;3.23;2.90;;;;;;;25.18;61.96;97532.81;5047568;28;20581;-31
2022/08/01 08:13:16;;;;;;;3.13;2.93;;;;;;;25.18;62.06;97537.94;5047152;28;20197;-31
2022/08/01 08:15:44;;;;;;;3.40;3.10;;;;;;;25.17;62.30;97531.94;5027357;28;20225;-31
2022/08/01 08:18:14;;;;;;;3.27;2.97;;;;;;;25.17;62.04;97536.22;5044566;28;20201;-30
2022/08/01 08:20:40;;;;;;;3.23;2.93;;;;;;;25.17;62.22;97535.34;5047082;28;20232;-31
2022/08/01 08:24:19;;;;;;;3.40;2.90;;;;;;;25.17;62.39;97530.22;5047192;28;20280;-31
2022/08/01 08:26:09;;;;;;;3.10;2.90;;;;;;;25.17;62.12;97539.66;5038938;28;20201;-31
2022/08/01 08:28:36;;;;;;;3.67;3.10;;;;;;;25.18;62.41;97532.81;5046625;28;20631;-31
2022/08/01 08:31:03;;;;;;;3.00;2.80;;;;;;;25.17;62.15;97534.50;5045942;28;20304;-31
2022/08/01 08:33:29;;;;;;;3.23;2.90;;;;;;;25.17;62.46;97534.50;5046861;28;20633;-30
2022/08/01 08:35:56;;;;;;;3.00;2.80;;;;;;;25.16;62.29;97531.91;5046099;28;20695;-30
2022/08/01 08:38:25;;;;;;;3.37;3.07;;;;;;;25.17;62.29;97537.06;5046418;28;20507;-31
2022/08/01 08:40:56;;;;;;;3.10;2.80;;;;;;;25.12;62.19;97517.28;5046618;28;20217;-30
2022/08/01 08:43:24;;;;;;;4.00;3.00;;;;;;;25.17;62.35;97536.22;5024812;28;20316;-30
2022/08/01 08:45:50;;;;;;;3.47;3.17;;;;;;;25.10;62.23;97522.41;5024858;28;20825;-30
2022/08/01 08:48:25;;;;;;;2.90;2.70;;;;;;;25.18;62.50;97535.38;5030140;28;20360;-30
2022/08/01 08:50:53;;;;;;;3.00;2.73;;;;;;;25.14;62.51;97529.31;5014990;28;20715;-31
2022/08/01 08:53:19;;;;;;;3.50;3.13;;;;;;;25.17;62.62;97536.22;5012231;28;20244;-31
2022/08/01 08:55:46;;;;;;;3.20;3.00;;;;;;;25.14;62.34;97531.88;5011752;28;20217;-31
2022/08/01 08:58:21;;;;;;;3.63;2.80;;;;;;;25.18;62.55;97540.53;5030783;28;20596;-31
2022/08/01 09:00:57;;;;;;;3.40;3.10;;;;;;;25.13;62.59;97524.13;5046935;28;20224;-31
2022/08/01 09:03:23;;;;;;;3.20;3.00;;;;;;;25.17;62.35;97531.94;5013180;28;20232;-31
2022/08/01 09:05:50;;;;;;;3.43;3.13;;;;;;;25.17;62.20;97532.78;5047583;28;20232;-31
2022/08/01 09:08:17;;;;;;;3.10;2.80;;;;;;;25.17;62.66;97531.09;5047791;28;20236;-31
2022/08/01 09:10:43;;;;;;;2.90;2.70;;;;;;;25.17;62.13;97533.66;5047561;28;20230;-31
2022/08/01 09:13:11;;;;;;;2.97;2.77;;;;;;;25.18;62.14;97537.94;5047727;28;20289;-31
2022/08/01 09:15:46;;;;;;;3.57;3.00;;;;;;;25.17;62.19;97539.66;5046793;28;20260;-31
2022/08/01 09:18:33;;;;;;;3.03;2.73;;;;;;;25.17;62.64;97526.78;5047627;28;20598;-31
2022/08/01 09:21:06;;;;;;;2.90;2.60;;;;;;;25.18;62.49;97535.38;5047109;28;20251;-31
2022/08/01 09:23:33;;;;;;;3.40;3.00;;;;;;;25.20;62.66;97535.41;5047624;28;20240;-31
2022/08/01 09:26:00;;;;;;;3.50;3.20;;;;;;;25.19;62.57;97528.53;5046590;28;20263;-31
2022/08/01 09:28:27;;;;;;;2.73;2.53;;;;;;;25.19;62.23;97526.81;5047601;28;20244;-31
2022/08/01 09:30:56;;;;;;;3.13;2.83;;;;;;;25.19;62.68;97529.38;5043974;28;20229;-31
2022/08/01 09:33:22;;;;;;;3.73;2.90;;;;;;;25.19;62.52;97533.69;5048154;28;20252;-31
2022/08/01 09:35:57;;;;;;;2.70;2.50;;;;;;;25.20;62.67;97535.41;5047508;28;20231;-31
2022/08/01 09:38:26;;;;;;;2.90;2.70;;;;;;;25.19;62.69;97534.53;5047214;28;20749;-31
2022/08/01 09:40:54;;;;;;;2.93;2.73;;;;;;;25.20;62.27;97535.41;5047626;28;20220;-31
2022/08/01 09:43:27;;;;;;;3.10;2.80;;;;;;;25.20;62.49;97535.41;5047505;28;20255;-31
2022/08/01 09:45:55;;;;;;;2.80;2.60;;;;;;;25.13;62.56;97518.16;5046622;28;20260;-31
2022/08/01 09:48:24;;;;;;;2.93;2.67;;;;;;;25.20;62.64;97535.41;5030037;28;20207;-31
2022/08/01 09:50:55;;;;;;;2.90;2.70;;;;;;;25.20;62.73;97543.13;5029343;28;20658;-31
2022/08/01 09:53:44;;;;;;;2.70;2.50;;;;;;;25.20;62.69;97540.53;5025256;28;20294;-31
2022/08/01 09:56:18;;;;;;;2.90;2.70;;;;;;;25.19;62.76;97542.25;5037055;28;20221;-32
2022/08/01 09:58:51;;;;;;;2.97;2.67;;;;;;;25.20;62.51;97537.97;5046467;28;20618;-31
2022/08/01 10:01:25;;;;;;;3.17;2.97;;;;;;;25.19;62.44;97542.25;5024531;28;20240;-31
2022/08/01 10:04:12;;;;;;;3.20;2.90;;;;;;;25.20;62.83;97540.53;5043763;28;20254;-31
2022/08/01 10:06:39;;;;;;;2.87;2.67;;;;;;;25.17;62.50;97531.09;5050125;28;20227;-31
2022/08/01 10:09:07;;;;;;;2.80;2.60;;;;;;;25.19;62.66;97531.94;5041680;28;20200;-31
2022/08/01 10:11:34;;;;;;;3.00;2.80;;;;;;;25.11;62.51;97518.13;5043325;28;20224;-31
2022/08/01 10:14:02;;;;;;;2.60;2.40;;;;;;;25.20;62.72;97537.97;5032836;28;20197;-31
2022/08/01 10:16:28;;;;;;;3.10;2.80;;;;;;;25.11;62.60;97515.56;5016691;28;20299;-31
2022/08/01 10:18:55;;;;;;;3.00;2.80;;;;;;;25.19;62.46;97526.81;5013443;28;20607;-31
2022/08/01 10:21:22;;;;;;;2.87;2.67;;;;;;;25.20;62.55;97520.84;5051100;28;20250;-31
2022/08/01 10:24:09;;;;;;;3.00;2.70;;;;;;;25.19;62.59;97513.94;5034632;28;20205;-31
2022/08/01 10:26:35;;;;;;;2.90;2.70;;;;;;;25.09;62.98;97499.22;5018257;28;20251;-31
2022/08/01 10:29:05;;;;;;;2.70;2.50;;;;;;;25.12;62.78;97504.41;5016546;28;20201;-31
2022/08/01 10:31:52;;;;;;;3.10;2.90;;;;;;;25.14;62.82;97498.44;5035546;28;20204;-31
2022/08/01 10:34:25;;;;;;;3.10;2.80;;;;;;;25.19;62.76;97510.53;5032152;28;20288;-31
2022/08/01 10:36:55;;;;;;;3.53;2.90;;;;;;;25.13;62.70;97499.31;5032358;28;20299;-31
2022/08/01 10:39:21;;;;;;;3.27;2.90;;;;;;;25.07;62.53;97488.91;5034721;28;20244;-31
2022/08/01 10:41:49;;;;;;;4.30;3.23;;;;;;;25.20;62.23;97507.97;5016672;28;20200;-31
2022/08/01 10:44:16;;;;;;;5.13;3.10;;;;;;;25.20;62.48;97510.56;5049384;28;20201;-31
2022/08/01 10:46:45;;;;;;;5.63;3.40;;;;;;;25.12;62.42;97491.56;5032473;28;20294;-31
2022/08/01 10:49:13;;;;;;;4.97;3.00;;;;;;;25.11;62.53;97487.28;5027831;28;20205;-31
2022/08/01 10:51:40;;;;;;;4.63;3.10;;;;;;;25.22;62.27;97505.44;5032296;28;20544;-31
2022/08/01 10:54:19;;;;;;;3.63;3.03;;;;;;;25.22;62.44;97502.84;5020151;28;20202;-31
2022/08/01 10:56:50;;;;;;;3.43;2.97;;;;;;;25.20;62.00;97500.25;5005266;28;20725;-31
2022/08/01 10:59:21;;;;;;;4.07;3.13;;;;;;;25.19;62.00;97489.94;5032493;28;20774;-31
2022/08/01 11:02:07;;;;;;;4.53;2.87;;;;;;;25.23;62.19;97496.84;5035984;28;20247;-31
2022/08/01 11:04:34;;;;;;;4.23;3.20;;;;;;;25.23;62.00;97500.31;5049398;28;20629;-31
2022/08/01 11:07:06;;;;;;;3.87;2.97;;;;;;;25.23;62.35;97499.44;5048241;28;20207;-31
2022/08/01 11:09:43;;;;;;;5.67;3.20;;;;;;;25.23;62.09;97496.84;5032651;28;21128;-31
2022/08/01 11:12:17;;;;;;;5.47;3.40;;;;;;;25.23;62.14;97486.56;5060696;28;20204;-31
2022/08/01 11:14:58;;;;;;;4.27;3.03;;;;;;;24.64;62.19;97394.00;5051559;28;20589;-31
2022/08/01 11:17:47;;;;;;;3.57;2.90;;;;;;;25.22;61.95;97480.53;5048990;28;20226;-31
2022/08/01 11:20:20;;;;;;;4.00;3.00;;;;;;;25.21;61.97;97472.81;5032376;28;20282;-31
2022/08/01 11:25:37;;;;;;;3.33;2.87;;;;;;;25.23;61.75;97484.88;5043543;28;20201;-31
2022/08/01 11:28:25;;;;;;;5.93;2.90;;;;;;;25.23;62.06;97481.44;5049524;28;20209;-31
2022/08/01 11:31:10;;;;;;;4.77;2.70;;;;;;;25.22;61.82;97479.72;5047684;28;20224;-31
2022/08/01 11:33:39;;;;;;;3.97;2.93;;;;;;;25.20;61.72;97482.25;5045182;28;20293;-31
2022/08/01 11:36:11;;;;;;;2.97;2.70;;;;;;;25.22;61.76;97485.69;5042249;28;20259;-31
2022/08/01 11:38:46;;;;;;;4.37;2.60;;;;;;;25.23;61.97;97489.16;5047420;28;20255;-31
2022/08/01 11:41:14;;;;;;;3.57;3.10;;;;;;;25.22;61.68;97483.13;5045241;28;20331;-31
2022/08/01 11:44:02;;;;;;;4.30;2.70;;;;;;;25.18;61.89;97473.66;5048508;28;20281;-31
2022/08/01 11:46:48;;;;;;;3.27;2.73;;;;;;;25.22;61.69;97485.69;5044102;28;20264;-31
2022/08/01 11:49:45;;;;;;;3.13;2.70;;;;;;;25.22;61.73;97488.25;5047674;28;20205;-31
2022/08/01 11:52:19;;;;;;;4.93;2.70;;;;;;;25.19;62.00;97479.66;5049217;28;20212;-31